sensor_id;sensor_type;location;lat;lon;timestamp;P1;durP1;ratioP1;P2;durP2;ratioP2
41927;SDS011;27616;51.420;6.788;2022-10-26T00:00:48;9.30;;;3.28;;
41927;SDS011;27616;51.420;6.788;2022-10-26T00:03:14;6.07;;;3.13;;
41927;SDS011;27616;51.420;6.788;2022-10-26T00:05:41;10.07;;;3.67;;
41927;SDS011;27616;51.420;6.788;2022-10-26T00:08:07;10.50;;;4.20;;
41927;SDS011;27616;51.420;6.788;2022-10-26T00:10:34;8.45;;;3.60;;
41927;SDS011;27616;51.420;6.788;2022-10-26T00:13:00;10.25;;;3.17;;
41927;SDS011;27616;51.420;6.788;2022-10-26T00:15:27;9.23;;;3.10;;
41927;SDS011;27616;51.420;6.788;2022-10-26T00:17:53;7.40;;;2.85;;
41927;SDS011;27616;51.420;6.788;2022-10-26T00:20:19;7.60;;;2.60;;
41927;SDS011;27616;51.420;6.788;2022-10-26T00:22:45;7.80;;;2.50;;
41927;SDS011;27616;51.420;6.788;2022-10-26T00:25:11;7.88;;;2.75;;
41927;SDS011;27616;51.420;6.788;2022-10-26T00:27:37;5.85;;;2.50;;
41927;SDS011;27616;51.420;6.788;2022-10-26T00:30:03;7.10;;;2.42;;
41927;SDS011;27616;51.420;6.788;2022-10-26T00:32:30;10.32;;;3.28;;
41927;SDS011;27616;51.420;6.788;2022-10-26T00:34:57;5.63;;;2.20;;
41927;SDS011;27616;51.420;6.788;2022-10-26T00:37:23;8.00;;;2.40;;
41927;SDS011;27616;51.420;6.788;2022-10-26T00:39:49;7.68;;;2.38;;
41927;SDS011;27616;51.420;6.788;2022-10-26T00:42:20;6.80;;;2.33;;
41927;SDS011;27616;51.420;6.788;2022-10-26T00:50:04;7.18;;;2.05;;
41927;SDS011;27616;51.420;6.788;2022-10-26T00:52:34;5.00;;;2.28;;
41927;SDS011;27616;51.420;6.788;2022-10-26T00:55:01;6.88;;;2.00;;
41927;SDS011;27616;51.420;6.788;2022-10-26T00:57:28;6.53;;;2.15;;
41927;SDS011;27616;51.420;6.788;2022-10-26T00:59:54;3.80;;;1.85;;
41927;SDS011;27616;51.420;6.788;2022-10-26T01:04:49;6.72;;;2.33;;
41927;SDS011;27616;51.420;6.788;2022-10-26T01:07:18;4.38;;;1.98;;
41927;SDS011;27616;51.420;6.788;2022-10-26T01:09:45;5.22;;;1.98;;
41927;SDS011;27616;51.420;6.788;2022-10-26T01:12:11;5.07;;;1.63;;
41927;SDS011;27616;51.420;6.788;2022-10-26T01:14:37;3.17;;;1.80;;
41927;SDS011;27616;51.420;6.788;2022-10-26T01:19:44;7.55;;;2.38;;
41927;SDS011;27616;51.420;6.788;2022-10-26T01:35:28;3.65;;;1.75;;
41927;SDS011;27616;51.420;6.788;2022-10-26T01:38:07;6.10;;;2.10;;
41927;SDS011;27616;51.420;6.788;2022-10-26T01:40:53;6.88;;;1.60;;
41927;SDS011;27616;51.420;6.788;2022-10-26T01:43:29;3.80;;;1.77;;
41927;SDS011;27616;51.420;6.788;2022-10-26T01:45:59;7.07;;;1.80;;
41927;SDS011;27616;51.420;6.788;2022-10-26T01:48:28;8.13;;;1.67;;
41927;SDS011;27616;51.420;6.788;2022-10-26T01:50:54;7.43;;;1.80;;
41927;SDS011;27616;51.420;6.788;2022-10-26T01:53:22;4.43;;;1.80;;
41927;SDS011;27616;51.420;6.788;2022-10-26T01:55:52;6.38;;;2.00;;
41927;SDS011;27616;51.420;6.788;2022-10-26T02:12:13;5.53;;;1.67;;
41927;SDS011;27616;51.420;6.788;2022-10-26T02:14:47;5.63;;;1.70;;
41927;SDS011;27616;51.420;6.788;2022-10-26T02:19:48;5.43;;;1.55;;
41927;SDS011;27616;51.420;6.788;2022-10-26T02:22:21;6.18;;;1.80;;
41927;SDS011;27616;51.420;6.788;2022-10-26T02:24:52;4.43;;;1.50;;
41927;SDS011;27616;51.420;6.788;2022-10-26T02:27:21;4.45;;;1.58;;
41927;SDS011;27616;51.420;6.788;2022-10-26T02:29:51;4.07;;;1.67;;
41927;SDS011;27616;51.420;6.788;2022-10-26T02:32:21;7.00;;;1.92;;
41927;SDS011;27616;51.420;6.788;2022-10-26T02:34:50;6.78;;;1.85;;
41927;SDS011;27616;51.420;6.788;2022-10-26T02:37:19;6.20;;;1.67;;
41927;SDS011;27616;51.420;6.788;2022-10-26T02:39:47;5.00;;;1.80;;
41927;SDS011;27616;51.420;6.788;2022-10-26T02:42:15;5.53;;;1.48;;
41927;SDS011;27616;51.420;6.788;2022-10-26T02:44:48;4.47;;;1.65;;
41927;SDS011;27616;51.420;6.788;2022-10-26T02:47:18;4.32;;;1.50;;
41927;SDS011;27616;51.420;6.788;2022-10-26T02:49:45;5.03;;;1.60;;
41927;SDS011;27616;51.420;6.788;2022-10-26T02:52:27;4.57;;;1.45;;
41927;SDS011;27616;51.420;6.788;2022-10-26T02:55:06;3.10;;;1.58;;
41927;SDS011;27616;51.420;6.788;2022-10-26T02:57:50;5.50;;;1.88;;
41927;SDS011;27616;51.420;6.788;2022-10-26T03:00:23;3.38;;;1.42;;
41927;SDS011;27616;51.420;6.788;2022-10-26T03:02:51;7.68;;;1.80;;
41927;SDS011;27616;51.420;6.788;2022-10-26T03:05:19;5.95;;;2.25;;
41927;SDS011;27616;51.420;6.788;2022-10-26T03:07:50;7.10;;;2.00;;
41927;SDS011;27616;51.420;6.788;2022-10-26T03:10:16;8.18;;;1.92;;
41927;SDS011;27616;51.420;6.788;2022-10-26T03:12:43;6.78;;;2.00;;
41927;SDS011;27616;51.420;6.788;2022-10-26T03:15:09;5.65;;;1.52;;
41927;SDS011;27616;51.420;6.788;2022-10-26T03:17:35;4.90;;;1.92;;
41927;SDS011;27616;51.420;6.788;2022-10-26T03:20:01;6.78;;;2.15;;
41927;SDS011;27616;51.420;6.788;2022-10-26T03:22:26;4.93;;;2.08;;
41927;SDS011;27616;51.420;6.788;2022-10-26T03:24:52;7.28;;;2.03;;
41927;SDS011;27616;51.420;6.788;2022-10-26T03:27:18;7.05;;;2.08;;
41927;SDS011;27616;51.420;6.788;2022-10-26T03:29:44;9.65;;;2.10;;
41927;SDS011;27616;51.420;6.788;2022-10-26T03:32:10;5.03;;;2.10;;
41927;SDS011;27616;51.420;6.788;2022-10-26T03:34:36;4.35;;;2.00;;
41927;SDS011;27616;51.420;6.788;2022-10-26T03:37:02;7.05;;;2.10;;
41927;SDS011;27616;51.420;6.788;2022-10-26T03:39:28;4.18;;;1.80;;
41927;SDS011;27616;51.420;6.788;2022-10-26T03:41:54;4.05;;;1.80;;
41927;SDS011;27616;51.420;6.788;2022-10-26T03:44:20;6.20;;;2.10;;
41927;SDS011;27616;51.420;6.788;2022-10-26T03:46:46;5.47;;;1.80;;
41927;SDS011;27616;51.420;6.788;2022-10-26T03:49:13;5.82;;;2.25;;
41927;SDS011;27616;51.420;6.788;2022-10-26T03:51:38;8.77;;;2.40;;
41927;SDS011;27616;51.420;6.788;2022-10-26T03:54:04;5.22;;;1.92;;
41927;SDS011;27616;51.420;6.788;2022-10-26T03:56:31;6.03;;;2.10;;
41927;SDS011;27616;51.420;6.788;2022-10-26T03:58:57;4.43;;;1.88;;
41927;SDS011;27616;51.420;6.788;2022-10-26T04:01:23;8.63;;;2.15;;
41927;SDS011;27616;51.420;6.788;2022-10-26T04:03:49;5.35;;;1.80;;
41927;SDS011;27616;51.420;6.788;2022-10-26T04:06:15;6.63;;;1.90;;
41927;SDS011;27616;51.420;6.788;2022-10-26T04:08:40;4.47;;;1.98;;
41927;SDS011;27616;51.420;6.788;2022-10-26T04:11:06;6.85;;;2.13;;
41927;SDS011;27616;51.420;6.788;2022-10-26T04:13:32;7.45;;;1.75;;
41927;SDS011;27616;51.420;6.788;2022-10-26T04:15:59;5.78;;;1.63;;
41927;SDS011;27616;51.420;6.788;2022-10-26T04:18:24;5.15;;;1.52;;
41927;SDS011;27616;51.420;6.788;2022-10-26T04:20:50;5.85;;;1.50;;
41927;SDS011;27616;51.420;6.788;2022-10-26T04:23:17;4.45;;;1.42;;
41927;SDS011;27616;51.420;6.788;2022-10-26T04:25:43;6.80;;;2.05;;
41927;SDS011;27616;51.420;6.788;2022-10-26T04:28:10;7.57;;;3.08;;
41927;SDS011;27616;51.420;6.788;2022-10-26T04:30:37;6.28;;;2.30;;
41927;SDS011;27616;51.420;6.788;2022-10-26T04:33:04;7.13;;;2.83;;
41927;SDS011;27616;51.420;6.788;2022-10-26T04:35:31;7.07;;;2.13;;
41927;SDS011;27616;51.420;6.788;2022-10-26T04:38:01;4.82;;;1.90;;
41927;SDS011;27616;51.420;6.788;2022-10-26T04:40:29;3.63;;;1.33;;
41927;SDS011;27616;51.420;6.788;2022-10-26T04:42:56;3.78;;;1.30;;
41927;SDS011;27616;51.420;6.788;2022-10-26T04:45:23;4.57;;;1.65;;
41927;SDS011;27616;51.420;6.788;2022-10-26T04:48:31;5.25;;;1.60;;
41927;SDS011;27616;51.420;6.788;2022-10-26T04:50:39;5.18;;;1.40;;
41927;SDS011;27616;51.420;6.788;2022-10-26T04:53:05;4.57;;;1.60;;
41927;SDS011;27616;51.420;6.788;2022-10-26T04:55:32;6.15;;;2.50;;
41927;SDS011;27616;51.420;6.788;2022-10-26T04:57:58;9.48;;;4.78;;
41927;SDS011;27616;51.420;6.788;2022-10-26T05:00:24;7.43;;;3.40;;
41927;SDS011;27616;51.420;6.788;2022-10-26T05:02:51;7.68;;;2.88;;
41927;SDS011;27616;51.420;6.788;2022-10-26T05:05:29;5.18;;;2.88;;
41927;SDS011;27616;51.420;6.788;2022-10-26T05:07:56;5.97;;;1.90;;
41927;SDS011;27616;51.420;6.788;2022-10-26T05:10:22;4.25;;;1.90;;
41927;SDS011;27616;51.420;6.788;2022-10-26T05:12:49;4.75;;;1.75;;
41927;SDS011;27616;51.420;6.788;2022-10-26T05:15:19;5.85;;;2.30;;
41927;SDS011;27616;51.420;6.788;2022-10-26T05:17:45;4.28;;;1.83;;
41927;SDS011;27616;51.420;6.788;2022-10-26T05:20:11;6.57;;;1.60;;
41927;SDS011;27616;51.420;6.788;2022-10-26T05:22:41;4.68;;;1.70;;
41927;SDS011;27616;51.420;6.788;2022-10-26T05:25:13;8.07;;;1.95;;
41927;SDS011;27616;51.420;6.788;2022-10-26T05:27:39;8.07;;;2.83;;
41927;SDS011;27616;51.420;6.788;2022-10-26T05:30:05;4.25;;;1.52;;
41927;SDS011;27616;51.420;6.788;2022-10-26T05:32:31;3.97;;;1.90;;
41927;SDS011;27616;51.420;6.788;2022-10-26T05:34:57;6.35;;;1.90;;
41927;SDS011;27616;51.420;6.788;2022-10-26T05:37:23;9.57;;;2.35;;
41927;SDS011;27616;51.420;6.788;2022-10-26T05:42:17;5.13;;;1.65;;
41927;SDS011;27616;51.420;6.788;2022-10-26T05:44:44;4.43;;;1.33;;
41927;SDS011;27616;51.420;6.788;2022-10-26T05:47:11;6.97;;;1.90;;
41927;SDS011;27616;51.420;6.788;2022-10-26T05:49:40;6.05;;;1.60;;
41927;SDS011;27616;51.420;6.788;2022-10-26T05:52:09;4.90;;;1.70;;
41927;SDS011;27616;51.420;6.788;2022-10-26T05:54:34;4.07;;;1.50;;
41927;SDS011;27616;51.420;6.788;2022-10-26T05:57:00;5.25;;;1.88;;
41927;SDS011;27616;51.420;6.788;2022-10-26T05:59:26;6.05;;;2.03;;
41927;SDS011;27616;51.420;6.788;2022-10-26T06:04:43;9.80;;;1.95;;
41927;SDS011;27616;51.420;6.788;2022-10-26T06:07:13;6.35;;;1.70;;
41927;SDS011;27616;51.420;6.788;2022-10-26T06:09:41;7.00;;;2.13;;
41927;SDS011;27616;51.420;6.788;2022-10-26T06:12:08;6.10;;;2.38;;
41927;SDS011;27616;51.420;6.788;2022-10-26T06:14:46;5.05;;;2.05;;
41927;SDS011;27616;51.420;6.788;2022-10-26T06:17:28;7.22;;;1.88;;
41927;SDS011;27616;51.420;6.788;2022-10-26T06:20:30;4.03;;;1.70;;
41927;SDS011;27616;51.420;6.788;2022-10-26T06:26:16;5.32;;;1.80;;
41927;SDS011;27616;51.420;6.788;2022-10-26T06:31:45;5.05;;;1.60;;
41927;SDS011;27616;51.420;6.788;2022-10-26T06:34:13;4.13;;;1.45;;
41927;SDS011;27616;51.420;6.788;2022-10-26T06:36:50;3.67;;;1.70;;
41927;SDS011;27616;51.420;6.788;2022-10-26T06:39:17;5.03;;;1.60;;
41927;SDS011;27616;51.420;6.788;2022-10-26T06:41:44;6.93;;;1.80;;
41927;SDS011;27616;51.420;6.788;2022-10-26T06:44:11;4.28;;;1.63;;
41927;SDS011;27616;51.420;6.788;2022-10-26T06:47:05;4.68;;;1.60;;
41927;SDS011;27616;51.420;6.788;2022-10-26T06:49:54;4.03;;;1.45;;
41927;SDS011;27616;51.420;6.788;2022-10-26T06:52:48;5.82;;;1.67;;
41927;SDS011;27616;51.420;6.788;2022-10-26T06:55:24;4.20;;;1.83;;
41927;SDS011;27616;51.420;6.788;2022-10-26T06:57:51;5.50;;;1.80;;
41927;SDS011;27616;51.420;6.788;2022-10-26T07:00:18;4.53;;;1.40;;
41927;SDS011;27616;51.420;6.788;2022-10-26T07:02:46;3.92;;;1.30;;
41927;SDS011;27616;51.420;6.788;2022-10-26T07:05:13;4.75;;;1.50;;
41927;SDS011;27616;51.420;6.788;2022-10-26T07:07:42;3.28;;;1.30;;
41927;SDS011;27616;51.420;6.788;2022-10-26T07:10:10;4.95;;;1.20;;
41927;SDS011;27616;51.420;6.788;2022-10-26T07:12:37;5.47;;;1.20;;
41927;SDS011;27616;51.420;6.788;2022-10-26T07:15:04;3.00;;;1.20;;
41927;SDS011;27616;51.420;6.788;2022-10-26T07:17:31;2.88;;;1.17;;
41927;SDS011;27616;51.420;6.788;2022-10-26T07:20:06;2.78;;;1.20;;
41927;SDS011;27616;51.420;6.788;2022-10-26T07:22:32;2.70;;;1.13;;
41927;SDS011;27616;51.420;6.788;2022-10-26T07:24:58;2.80;;;1.20;;
41927;SDS011;27616;51.420;6.788;2022-10-26T07:27:24;4.63;;;1.30;;
41927;SDS011;27616;51.420;6.788;2022-10-26T07:29:50;3.70;;;1.20;;
41927;SDS011;27616;51.420;6.788;2022-10-26T07:32:15;4.65;;;1.10;;
41927;SDS011;27616;51.420;6.788;2022-10-26T07:34:41;3.55;;;1.40;;
41927;SDS011;27616;51.420;6.788;2022-10-26T07:37:07;3.95;;;1.23;;
41927;SDS011;27616;51.420;6.788;2022-10-26T07:39:33;2.92;;;1.20;;
41927;SDS011;27616;51.420;6.788;2022-10-26T07:41:59;3.22;;;1.30;;
41927;SDS011;27616;51.420;6.788;2022-10-26T07:44:25;3.58;;;1.42;;
41927;SDS011;27616;51.420;6.788;2022-10-26T07:46:50;4.40;;;1.27;;
41927;SDS011;27616;51.420;6.788;2022-10-26T07:49:16;7.50;;;1.48;;
41927;SDS011;27616;51.420;6.788;2022-10-26T07:51:42;7.18;;;1.60;;
41927;SDS011;27616;51.420;6.788;2022-10-26T07:54:08;5.85;;;1.70;;
41927;SDS011;27616;51.420;6.788;2022-10-26T07:56:34;5.60;;;1.73;;
41927;SDS011;27616;51.420;6.788;2022-10-26T07:59:00;4.28;;;1.60;;
41927;SDS011;27616;51.420;6.788;2022-10-26T08:01:26;3.38;;;1.52;;
41927;SDS011;27616;51.420;6.788;2022-10-26T08:03:52;3.33;;;1.70;;
41927;SDS011;27616;51.420;6.788;2022-10-26T08:06:19;5.38;;;1.80;;
41927;SDS011;27616;51.420;6.788;2022-10-26T08:08:46;6.35;;;1.70;;
41927;SDS011;27616;51.420;6.788;2022-10-26T08:11:12;5.00;;;1.88;;
41927;SDS011;27616;51.420;6.788;2022-10-26T08:13:39;4.30;;;1.60;;
41927;SDS011;27616;51.420;6.788;2022-10-26T08:16:05;7.47;;;1.70;;
41927;SDS011;27616;51.420;6.788;2022-10-26T08:18:31;4.40;;;2.38;;
41927;SDS011;27616;51.420;6.788;2022-10-26T08:21:05;4.88;;;1.77;;
41927;SDS011;27616;51.420;6.788;2022-10-26T08:23:32;7.22;;;1.90;;
41927;SDS011;27616;51.420;6.788;2022-10-26T08:25:58;3.20;;;1.60;;
41927;SDS011;27616;51.420;6.788;2022-10-26T08:28:26;6.53;;;1.77;;
41927;SDS011;27616;51.420;6.788;2022-10-26T08:30:52;4.88;;;1.92;;
41927;SDS011;27616;51.420;6.788;2022-10-26T08:33:18;4.15;;;1.60;;
41927;SDS011;27616;51.420;6.788;2022-10-26T08:35:44;3.83;;;1.40;;
41927;SDS011;27616;51.420;6.788;2022-10-26T08:38:11;6.72;;;1.52;;
41927;SDS011;27616;51.420;6.788;2022-10-26T08:40:37;4.75;;;1.50;;
41927;SDS011;27616;51.420;6.788;2022-10-26T08:43:12;4.70;;;1.63;;
41927;SDS011;27616;51.420;6.788;2022-10-26T08:45:42;5.55;;;1.92;;
41927;SDS011;27616;51.420;6.788;2022-10-26T08:48:20;5.32;;;1.30;;
41927;SDS011;27616;51.420;6.788;2022-10-26T08:50:56;4.18;;;1.67;;
41927;SDS011;27616;51.420;6.788;2022-10-26T08:53:37;2.85;;;1.58;;
41927;SDS011;27616;51.420;6.788;2022-10-26T08:56:16;4.28;;;1.70;;
41927;SDS011;27616;51.420;6.788;2022-10-26T08:58:54;7.75;;;1.98;;
41927;SDS011;27616;51.420;6.788;2022-10-26T09:01:25;5.70;;;1.70;;
41927;SDS011;27616;51.420;6.788;2022-10-26T09:03:51;5.70;;;1.70;;
41927;SDS011;27616;51.420;6.788;2022-10-26T09:06:30;4.95;;;2.20;;
41927;SDS011;27616;51.420;6.788;2022-10-26T09:09:10;9.45;;;1.60;;
41927;SDS011;27616;51.420;6.788;2022-10-26T09:11:50;6.15;;;1.70;;
41927;SDS011;27616;51.420;6.788;2022-10-26T09:14:27;4.88;;;1.70;;
41927;SDS011;27616;51.420;6.788;2022-10-26T09:17:05;5.07;;;1.95;;
41927;SDS011;27616;51.420;6.788;2022-10-26T09:20:41;6.57;;;1.70;;
41927;SDS011;27616;51.420;6.788;2022-10-26T09:22:50;4.20;;;1.60;;
41927;SDS011;27616;51.420;6.788;2022-10-26T09:25:21;4.90;;;1.88;;
41927;SDS011;27616;51.420;6.788;2022-10-26T09:27:53;5.10;;;1.80;;
41927;SDS011;27616;51.420;6.788;2022-10-26T09:30:21;4.78;;;2.50;;
41927;SDS011;27616;51.420;6.788;2022-10-26T09:32:49;6.28;;;2.10;;
41927;SDS011;27616;51.420;6.788;2022-10-26T09:38:15;6.25;;;1.90;;
41927;SDS011;27616;51.420;6.788;2022-10-26T09:44:17;6.55;;;2.50;;
41927;SDS011;27616;51.420;6.788;2022-10-26T09:49:33;4.60;;;1.70;;
41927;SDS011;27616;51.420;6.788;2022-10-26T09:52:05;8.57;;;2.05;;
41927;SDS011;27616;51.420;6.788;2022-10-26T09:54:31;7.55;;;2.22;;
41927;SDS011;27616;51.420;6.788;2022-10-26T09:56:57;6.57;;;2.40;;
41927;SDS011;27616;51.420;6.788;2022-10-26T09:59:27;5.35;;;2.30;;
41927;SDS011;27616;51.420;6.788;2022-10-26T10:01:57;4.82;;;1.95;;
41927;SDS011;27616;51.420;6.788;2022-10-26T10:04:23;5.80;;;2.03;;
41927;SDS011;27616;51.420;6.788;2022-10-26T10:07:10;6.78;;;1.80;;
41927;SDS011;27616;51.420;6.788;2022-10-26T10:09:38;5.07;;;1.75;;
41927;SDS011;27616;51.420;6.788;2022-10-26T10:12:04;7.40;;;2.08;;
41927;SDS011;27616;51.420;6.788;2022-10-26T10:14:32;4.60;;;1.98;;
41927;SDS011;27616;51.420;6.788;2022-10-26T10:17:05;7.28;;;2.15;;
41927;SDS011;27616;51.420;6.788;2022-10-26T10:19:35;6.78;;;2.05;;
41927;SDS011;27616;51.420;6.788;2022-10-26T10:22:18;10.43;;;2.38;;
41927;SDS011;27616;51.420;6.788;2022-10-26T10:24:54;6.05;;;2.13;;
41927;SDS011;27616;51.420;6.788;2022-10-26T10:27:22;6.00;;;2.10;;
41927;SDS011;27616;51.420;6.788;2022-10-26T10:29:52;6.20;;;1.95;;
41927;SDS011;27616;51.420;6.788;2022-10-26T10:32:24;8.48;;;2.20;;
41927;SDS011;27616;51.420;6.788;2022-10-26T10:34:53;5.75;;;1.98;;
41927;SDS011;27616;51.420;6.788;2022-10-26T10:37:24;10.18;;;2.03;;
41927;SDS011;27616;51.420;6.788;2022-10-26T10:39:58;5.15;;;2.10;;
41927;SDS011;27616;51.420;6.788;2022-10-26T10:42:29;8.70;;;2.53;;
41927;SDS011;27616;51.420;6.788;2022-10-26T10:44:56;8.18;;;2.78;;
41927;SDS011;27616;51.420;6.788;2022-10-26T10:47:24;5.82;;;2.20;;
41927;SDS011;27616;51.420;6.788;2022-10-26T10:50:38;5.40;;;2.47;;
41927;SDS011;27616;51.420;6.788;2022-10-26T10:52:38;9.23;;;2.55;;
41927;SDS011;27616;51.420;6.788;2022-10-26T10:57:50;5.28;;;1.92;;
41927;SDS011;27616;51.420;6.788;2022-10-26T11:00:27;5.45;;;2.00;;
41927;SDS011;27616;51.420;6.788;2022-10-26T11:05:47;5.80;;;2.28;;
41927;SDS011;27616;51.420;6.788;2022-10-26T11:08:48;6.28;;;1.90;;
41927;SDS011;27616;51.420;6.788;2022-10-26T11:11:26;9.60;;;2.40;;
41927;SDS011;27616;51.420;6.788;2022-10-26T11:16:36;6.88;;;2.50;;
41927;SDS011;27616;51.420;6.788;2022-10-26T11:19:14;6.05;;;2.38;;
41927;SDS011;27616;51.420;6.788;2022-10-26T11:21:43;5.70;;;2.10;;
41927;SDS011;27616;51.420;6.788;2022-10-26T11:27:16;7.47;;;2.38;;
41927;SDS011;27616;51.420;6.788;2022-10-26T11:32:21;7.60;;;2.80;;
41927;SDS011;27616;51.420;6.788;2022-10-26T11:48:52;8.00;;;2.53;;
41927;SDS011;27616;51.420;6.788;2022-10-26T11:54:02;7.47;;;2.35;;
41927;SDS011;27616;51.420;6.788;2022-10-26T11:56:37;6.72;;;2.22;;
41927;SDS011;27616;51.420;6.788;2022-10-26T11:59:18;7.00;;;1.98;;
41927;SDS011;27616;51.420;6.788;2022-10-26T12:01:49;7.82;;;1.88;;
41927;SDS011;27616;51.420;6.788;2022-10-26T12:04:17;5.45;;;1.70;;
41927;SDS011;27616;51.420;6.788;2022-10-26T12:06:46;5.32;;;1.67;;
41927;SDS011;27616;51.420;6.788;2022-10-26T12:09:29;7.93;;;1.70;;
41927;SDS011;27616;51.420;6.788;2022-10-26T12:12:00;5.85;;;1.70;;
41927;SDS011;27616;51.420;6.788;2022-10-26T12:14:44;8.32;;;1.85;;
41927;SDS011;27616;51.420;6.788;2022-10-26T12:17:18;4.13;;;1.70;;
41927;SDS011;27616;51.420;6.788;2022-10-26T12:20:39;5.50;;;1.50;;
41927;SDS011;27616;51.420;6.788;2022-10-26T12:23:17;8.95;;;2.33;;
41927;SDS011;27616;51.420;6.788;2022-10-26T12:25:45;7.72;;;2.25;;
41927;SDS011;27616;51.420;6.788;2022-10-26T12:34:00;5.57;;;2.00;;
41927;SDS011;27616;51.420;6.788;2022-10-26T12:41:54;6.10;;;2.10;;
41927;SDS011;27616;51.420;6.788;2022-10-26T12:44:39;3.63;;;1.52;;
41927;SDS011;27616;51.420;6.788;2022-10-26T12:47:08;2.83;;;1.40;;
41927;SDS011;27616;51.420;6.788;2022-10-26T12:52:48;4.63;;;1.70;;
41927;SDS011;27616;51.420;6.788;2022-10-26T12:58:22;4.25;;;1.55;;
41927;SDS011;27616;51.420;6.788;2022-10-26T13:01:18;4.53;;;1.30;;
41927;SDS011;27616;51.420;6.788;2022-10-26T13:09:11;4.13;;;1.48;;
41927;SDS011;27616;51.420;6.788;2022-10-26T13:12:04;5.28;;;1.63;;
41927;SDS011;27616;51.420;6.788;2022-10-26T13:14:35;5.90;;;1.80;;
41927;SDS011;27616;51.420;6.788;2022-10-26T13:17:05;4.32;;;1.42;;
41927;SDS011;27616;51.420;6.788;2022-10-26T13:19:46;4.45;;;1.38;;
41927;SDS011;27616;51.420;6.788;2022-10-26T13:22:13;5.43;;;1.77;;
41927;SDS011;27616;51.420;6.788;2022-10-26T13:24:47;5.03;;;1.40;;
41927;SDS011;27616;51.420;6.788;2022-10-26T13:32:49;6.03;;;2.10;;
41927;SDS011;27616;51.420;6.788;2022-10-26T13:35:16;7.72;;;2.03;;
41927;SDS011;27616;51.420;6.788;2022-10-26T13:37:47;4.67;;;1.40;;
41927;SDS011;27616;51.420;6.788;2022-10-26T13:40:18;6.05;;;1.70;;
41927;SDS011;27616;51.420;6.788;2022-10-26T13:42:53;3.80;;;1.30;;
41927;SDS011;27616;51.420;6.788;2022-10-26T13:45:27;5.38;;;1.90;;
41927;SDS011;27616;51.420;6.788;2022-10-26T13:48:17;8.43;;;2.78;;
41927;SDS011;27616;51.420;6.788;2022-10-26T13:51:12;9.73;;;3.45;;
41927;SDS011;27616;51.420;6.788;2022-10-26T13:53:59;5.88;;;2.10;;
41927;SDS011;27616;51.420;6.788;2022-10-26T13:56:32;5.93;;;2.75;;
41927;SDS011;27616;51.420;6.788;2022-10-26T13:59:11;6.93;;;2.55;;
41927;SDS011;27616;51.420;6.788;2022-10-26T14:01:39;6.60;;;2.17;;
41927;SDS011;27616;51.420;6.788;2022-10-26T14:04:15;6.55;;;2.30;;
41927;SDS011;27616;51.420;6.788;2022-10-26T14:06:43;9.45;;;2.72;;
41927;SDS011;27616;51.420;6.788;2022-10-26T14:09:15;6.40;;;2.20;;
41927;SDS011;27616;51.420;6.788;2022-10-26T14:14:13;5.10;;;1.40;;
41927;SDS011;27616;51.420;6.788;2022-10-26T14:16:43;4.03;;;1.70;;
41927;SDS011;27616;51.420;6.788;2022-10-26T14:19:30;6.85;;;2.33;;
41927;SDS011;27616;51.420;6.788;2022-10-26T14:22:01;3.70;;;1.67;;
41927;SDS011;27616;51.420;6.788;2022-10-26T14:24:32;4.47;;;1.67;;
41927;SDS011;27616;51.420;6.788;2022-10-26T14:26:59;3.42;;;1.30;;
41927;SDS011;27616;51.420;6.788;2022-10-26T14:29:26;4.93;;;1.73;;
41927;SDS011;27616;51.420;6.788;2022-10-26T14:31:55;5.28;;;1.60;;
41927;SDS011;27616;51.420;6.788;2022-10-26T14:34:21;5.18;;;2.00;;
41927;SDS011;27616;51.420;6.788;2022-10-26T14:36:57;9.40;;;2.08;;
41927;SDS011;27616;51.420;6.788;2022-10-26T14:41:56;6.50;;;1.48;;
41927;SDS011;27616;51.420;6.788;2022-10-26T14:44:25;5.72;;;1.48;;
41927;SDS011;27616;51.420;6.788;2022-10-26T14:46:53;5.28;;;1.50;;
41927;SDS011;27616;51.420;6.788;2022-10-26T14:49:20;3.63;;;1.30;;
41927;SDS011;27616;51.420;6.788;2022-10-26T14:51:54;3.50;;;1.48;;
41927;SDS011;27616;51.420;6.788;2022-10-26T14:54:25;5.80;;;1.65;;
41927;SDS011;27616;51.420;6.788;2022-10-26T14:56:53;4.25;;;1.80;;
41927;SDS011;27616;51.420;6.788;2022-10-26T14:59:26;4.00;;;1.90;;
41927;SDS011;27616;51.420;6.788;2022-10-26T15:01:54;4.25;;;1.70;;
41927;SDS011;27616;51.420;6.788;2022-10-26T15:04:26;2.50;;;1.30;;
41927;SDS011;27616;51.420;6.788;2022-10-26T15:07:06;2.78;;;1.30;;
41927;SDS011;27616;51.420;6.788;2022-10-26T15:09:37;3.42;;;1.23;;
41927;SDS011;27616;51.420;6.788;2022-10-26T15:12:13;4.70;;;1.20;;
41927;SDS011;27616;51.420;6.788;2022-10-26T15:14:54;4.07;;;1.15;;
41927;SDS011;27616;51.420;6.788;2022-10-26T15:17:29;2.85;;;1.30;;
41927;SDS011;27616;51.420;6.788;2022-10-26T15:20:01;6.05;;;1.30;;
41927;SDS011;27616;51.420;6.788;2022-10-26T15:22:30;9.55;;;1.88;;
41927;SDS011;27616;51.420;6.788;2022-10-26T15:24:58;3.80;;;1.35;;
41927;SDS011;27616;51.420;6.788;2022-10-26T15:27:28;4.88;;;1.88;;
41927;SDS011;27616;51.420;6.788;2022-10-26T15:32:57;5.03;;;1.80;;
41927;SDS011;27616;51.420;6.788;2022-10-26T15:35:46;3.70;;;1.95;;
41927;SDS011;27616;51.420;6.788;2022-10-26T15:38:12;9.50;;;4.97;;
41927;SDS011;27616;51.420;6.788;2022-10-26T15:40:41;9.73;;;5.10;;
41927;SDS011;27616;51.420;6.788;2022-10-26T15:43:24;8.75;;;3.88;;
41927;SDS011;27616;51.420;6.788;2022-10-26T15:45:50;9.52;;;3.97;;
41927;SDS011;27616;51.420;6.788;2022-10-26T15:48:27;6.15;;;3.20;;
41927;SDS011;27616;51.420;6.788;2022-10-26T15:50:57;6.22;;;2.75;;
41927;SDS011;27616;51.420;6.788;2022-10-26T15:53:24;7.13;;;2.75;;
41927;SDS011;27616;51.420;6.788;2022-10-26T15:55:54;4.63;;;2.50;;
41927;SDS011;27616;51.420;6.788;2022-10-26T15:58:21;4.80;;;2.67;;
41927;SDS011;27616;51.420;6.788;2022-10-26T16:00:48;9.15;;;3.40;;
41927;SDS011;27616;51.420;6.788;2022-10-26T16:03:21;5.95;;;3.45;;
41927;SDS011;27616;51.420;6.788;2022-10-26T16:05:50;6.95;;;4.07;;
41927;SDS011;27616;51.420;6.788;2022-10-26T16:08:20;6.45;;;3.22;;
41927;SDS011;27616;51.420;6.788;2022-10-26T16:10:46;5.80;;;2.60;;
41927;SDS011;27616;51.420;6.788;2022-10-26T16:13:13;5.63;;;2.78;;
41927;SDS011;27616;51.420;6.788;2022-10-26T16:15:39;5.38;;;2.95;;
41927;SDS011;27616;51.420;6.788;2022-10-26T16:18:05;6.32;;;3.20;;
41927;SDS011;27616;51.420;6.788;2022-10-26T16:20:31;10.20;;;5.80;;
41927;SDS011;27616;51.420;6.788;2022-10-26T16:22:58;12.35;;;6.53;;
41927;SDS011;27616;51.420;6.788;2022-10-26T16:25:30;9.55;;;5.70;;
41927;SDS011;27616;51.420;6.788;2022-10-26T16:27:57;7.18;;;4.38;;
41927;SDS011;27616;51.420;6.788;2022-10-26T16:30:23;9.07;;;3.88;;
41927;SDS011;27616;51.420;6.788;2022-10-26T16:32:49;8.25;;;4.57;;
41927;SDS011;27616;51.420;6.788;2022-10-26T16:35:15;8.68;;;4.50;;
41927;SDS011;27616;51.420;6.788;2022-10-26T16:37:41;7.18;;;3.88;;
41927;SDS011;27616;51.420;6.788;2022-10-26T16:40:07;4.88;;;2.78;;
41927;SDS011;27616;51.420;6.788;2022-10-26T16:42:34;4.75;;;2.55;;
41927;SDS011;27616;51.420;6.788;2022-10-26T16:45:00;6.32;;;3.22;;
41927;SDS011;27616;51.420;6.788;2022-10-26T16:47:26;9.88;;;6.20;;
41927;SDS011;27616;51.420;6.788;2022-10-26T16:49:52;12.27;;;6.53;;
41927;SDS011;27616;51.420;6.788;2022-10-26T16:52:18;13.73;;;6.53;;
41927;SDS011;27616;51.420;6.788;2022-10-26T16:54:44;10.95;;;6.88;;
41927;SDS011;27616;51.420;6.788;2022-10-26T16:57:10;10.52;;;6.32;;
41927;SDS011;27616;51.420;6.788;2022-10-26T16:59:36;10.98;;;5.13;;
41927;SDS011;27616;51.420;6.788;2022-10-26T17:02:02;8.60;;;4.85;;
41927;SDS011;27616;51.420;6.788;2022-10-26T17:04:28;8.82;;;4.90;;
41927;SDS011;27616;51.420;6.788;2022-10-26T17:06:54;8.18;;;4.47;;
41927;SDS011;27616;51.420;6.788;2022-10-26T17:09:20;9.93;;;5.40;;
41927;SDS011;27616;51.420;6.788;2022-10-26T17:11:46;10.65;;;5.13;;
41927;SDS011;27616;51.420;6.788;2022-10-26T17:14:12;9.80;;;4.38;;